Time;durP1;ratioP1;P1;durP2;ratioP2;P2;SDS_P1;SDS_P2;PMS_P1;PMS_P2;Temp;Humidity;BMP_temperature;BMP_pressure;BME280_temperature;BME280_humidity;BME280_pressure;Samples;Min_cycle;Max_cycle;Signal;HPM_P1;HPM_P2
2021/01/29 00:01:33;;;;;;;5.20;4.70;;;;;;;2.62;56.15;100371.66;6120091;29;20240;-62
2021/01/29 00:04:53;;;;;;;7.03;5.00;;;;;;;2.72;56.63;100363.28;6125432;28;20270;-62
2021/01/29 00:08:14;;;;;;;5.83;4.60;;;;;;;2.72;56.82;100358.16;6103970;28;20239;-62
2021/01/29 00:11:34;;;;;;;5.27;4.77;;;;;;;2.76;56.48;100349.63;6120264;28;20334;-62
2021/01/29 00:14:56;;;;;;;5.63;4.57;;;;;;;2.80;56.90;100347.97;6120781;28;20231;-62
2021/01/29 00:18:16;;;;;;;4.97;4.57;;;;;;;2.74;56.97;100334.19;6126997;28;20247;-62
2021/01/29 00:21:37;;;;;;;5.67;5.13;;;;;;;2.81;57.10;100332.56;6115897;28;20233;-62
2021/01/29 00:24:57;;;;;;;6.43;4.53;;;;;;;2.96;56.00;100332.75;6126446;28;20240;-62
2021/01/29 00:28:20;;;;;;;8.57;5.07;;;;;;;3.08;55.61;100336.34;6127657;28;20503;-63
2021/01/29 00:31:42;;;;;;;5.23;4.70;;;;;;;2.88;56.41;100354.94;6117385;28;20232;-63
2021/01/29 00:35:03;;;;;;;7.20;5.07;;;;;;;2.83;56.57;100355.72;6127023;28;20553;-62
2021/01/29 00:38:23;;;;;;;7.10;4.43;;;;;;;2.00;59.01;100359.47;6111793;29;20264;-62
2021/01/29 00:41:43;;;;;;;5.60;4.80;;;;;;;2.49;58.10;100350.91;6127579;28;20232;-61
2021/01/29 00:45:07;;;;;;;5.73;4.27;;;;;;;2.86;56.40;100338.63;6123503;29;20231;-63
2021/01/29 00:48:28;;;;;;;5.93;4.40;;;;;;;2.86;56.78;100338.63;6120739;29;20343;-62
2021/01/29 00:51:48;;;;;;;6.27;5.03;;;;;;;3.13;56.28;100340.72;6118531;28;20631;-62
2021/01/29 00:55:11;;;;;;;6.17;4.40;;;;;;;3.14;55.28;100331.28;6135540;28;21016;-63
2021/01/29 00:58:41;;;;;;;5.13;4.37;;;;;;;2.95;56.22;100325.91;6103712;28;20238;-63
2021/01/29 01:02:24;;;;;;;5.53;4.90;;;;;;;2.99;56.39;100308.81;6117970;29;20231;-62
2021/01/29 01:05:45;;;;;;;6.37;5.20;;;;;;;3.10;56.13;100298.66;6109602;29;20519;-62
2021/01/29 01:09:13;;;;;;;8.70;4.70;;;;;;;3.20;56.02;100292.78;6104232;28;20259;-62
2021/01/29 01:12:37;;;;;;;5.33;4.23;;;;;;;3.10;55.98;100288.34;6120706;29;20235;-62
2021/01/29 01:16:01;;;;;;;5.57;4.33;;;;;;;2.90;56.68;100280.38;6128549;28;20546;-62
2021/01/29 01:19:21;;;;;;;5.10;3.80;;;;;;;2.80;57.15;100270.81;6124437;28;20263;-61
2021/01/29 01:22:50;;;;;;;6.43;4.73;;;;;;;2.81;56.96;100265.72;6117484;28;20236;-62
2021/01/29 01:26:40;;;;;;;5.43;4.87;;;;;;;2.78;57.30;100275.94;6124644;28;20232;-62
2021/01/29 01:30:32;;;;;;;7.07;4.53;;;;;;;2.90;56.80;100281.25;6114041;28;20238;-61
2021/01/29 01:33:54;;;;;;;6.83;4.77;;;;;;;2.61;58.02;100269.69;6117663;28;20524;-62
2021/01/29 01:37:37;;;;;;;5.67;4.50;;;;;;;2.93;56.36;100257.28;6120906;28;20224;-61
2021/01/29 01:41:32;;;;;;;5.13;4.17;;;;;;;2.89;56.87;100247.78;6124732;28;20235;-61
2021/01/29 01:44:53;;;;;;;5.93;4.70;;;;;;;2.88;56.58;100246.06;6127028;29;20231;-61
2021/01/29 01:48:31;;;;;;;6.50;4.50;;;;;;;2.94;56.66;100235.84;6102902;29;20243;-62
2021/01/29 01:52:22;;;;;;;8.80;4.70;;;;;;;3.00;56.12;100230.78;6133620;28;20508;-61
2021/01/29 01:56:12;;;;;;;7.30;5.50;;;;;;;2.93;56.88;100229.00;6112883;29;20599;-62
2021/01/29 01:59:58;;;;;;;5.27;4.37;;;;;;;2.99;56.46;100223.06;6120258;28;20344;-60
2021/01/29 02:03:37;;;;;;;9.03;4.50;;;;;;;2.94;56.52;100221.28;6123691;28;20547;-62
2021/01/29 02:07:25;;;;;;;4.10;3.70;;;;;;;2.78;57.16;100208.22;6117916;28;20380;-61
2021/01/29 02:11:13;;;;;;;4.17;3.70;;;;;;;2.79;57.14;100203.06;6091996;29;20227;-61
2021/01/29 02:14:53;;;;;;;4.70;4.07;;;;;;;2.78;56.37;100195.38;6120638;28;20231;-61
2021/01/29 02:18:31;;;;;;;4.70;3.30;;;;;;;2.61;57.10;100185.72;6118679;28;20236;-61
2021/01/29 02:22:31;;;;;;;4.93;3.07;;;;;;;2.69;57.14;100193.53;6121932;28;20525;-62
2021/01/29 02:26:53;;;;;;;4.57;3.03;;;;;;;2.86;57.06;100186.88;6122490;28;20299;-61
2021/01/29 02:30:47;;;;;;;7.67;3.70;;;;;;;2.99;56.90;100176.75;6123596;28;20296;-61
2021/01/29 02:34:35;;;;;;;4.30;3.17;;;;;;;3.03;56.59;100169.09;6124093;28;20232;-60
2021/01/29 02:38:39;;;;;;;4.57;3.33;;;;;;;2.84;56.63;100160.28;6114214;28;20248;-62
2021/01/29 02:42:36;;;;;;;5.40;3.93;;;;;;;2.74;57.42;100161.03;6107373;29;20602;-61
2021/01/29 02:46:10;;;;;;;4.17;2.97;;;;;;;2.90;56.42;100157.78;6121781;28;20231;-61
2021/01/29 02:49:56;;;;;;;4.47;3.20;;;;;;;2.70;57.08;100143.84;6115896;29;20311;-60
2021/01/29 02:53:41;;;;;;;5.57;3.43;;;;;;;2.81;56.75;100131.97;6128556;28;20231;-61
2021/01/29 02:57:40;;;;;;;4.03;3.17;;;;;;;2.81;56.85;100123.38;6118718;28;20645;-62
2021/01/29 03:01:20;;;;;;;3.70;2.90;;;;;;;2.83;57.48;100120.00;6105921;29;20318;-61
2021/01/29 03:04:52;;;;;;;3.17;2.87;;;;;;;2.85;57.29;100105.44;6133002;28;20515;-61
2021/01/29 03:08:17;;;;;;;5.33;3.80;;;;;;;2.46;57.80;100086.16;6122058;28;20243;-61
2021/01/29 03:12:03;;;;;;;5.83;3.20;;;;;;;2.76;57.42;100087.34;6121191;28;20562;-61
2021/01/29 03:15:45;;;;;;;4.03;2.80;;;;;;;2.71;56.85;100083.84;6118389;28;20232;-60
2021/01/29 03:19:29;;;;;;;3.00;2.80;;;;;;;2.75;57.41;100088.16;6115448;28;20235;-60
2021/01/29 03:23:15;;;;;;;4.67;2.83;;;;;;;2.50;57.77;100084.44;6128234;28;20593;-60
2021/01/29 03:26:58;;;;;;;4.13;2.47;;;;;;;2.90;57.35;100064.34;6115294;28;20235;-61
2021/01/29 03:30:41;;;;;;;6.40;2.70;;;;;;;2.65;57.91;100073.50;6123111;28;20231;-61
2021/01/29 03:34:26;;;;;;;2.57;2.37;;;;;;;2.75;56.88;100065.03;6118454;28;20236;-62
2021/01/29 03:38:14;;;;;;;3.37;2.13;;;;;;;2.47;57.87;100057.03;6118991;28;20629;-61
2021/01/29 03:42:02;;;;;;;2.77;2.40;;;;;;;2.40;57.55;100059.50;6121052;28;20240;-63
2021/01/29 03:45:48;;;;;;;5.10;2.67;;;;;;;2.28;57.91;100048.22;6116411;29;20231;-62
2021/01/29 03:49:40;;;;;;;3.13;2.43;;;;;;;2.64;57.79;100028.94;6115886;28;20223;-62
2021/01/29 03:53:35;;;;;;;3.00;2.30;;;;;;;2.62;57.67;100019.47;6118842;28;20232;-62
2021/01/29 03:57:24;;;;;;;2.93;2.30;;;;;;;2.53;57.53;100012.53;6116554;28;20629;-62
2021/01/29 04:01:25;;;;;;;4.07;2.43;;;;;;;2.37;58.27;100014.06;6122530;29;20235;-62
2021/01/29 04:05:09;;;;;;;7.43;2.70;;;;;;;1.90;59.13;99999.81;6116578;28;20613;-62
2021/01/29 04:08:55;;;;;;;2.20;2.00;;;;;;;2.58;58.09;99992.00;6129893;28;20223;-60
2021/01/29 04:12:55;;;;;;;4.03;2.90;;;;;;;2.70;56.88;99985.28;6126116;28;20456;-61
2021/01/29 04:16:25;;;;;;;6.47;2.33;;;;;;;2.35;58.74;99979.78;6121091;29;20595;-61
2021/01/29 04:19:49;;;;;;;6.40;3.63;;;;;;;2.34;58.24;99971.19;6123721;29;20622;-61
2021/01/29 04:23:15;;;;;;;3.83;2.43;;;;;;;2.30;58.06;99959.16;6126040;28;20448;-60
2021/01/29 04:26:40;;;;;;;3.43;2.47;;;;;;;2.63;56.95;99950.06;6127551;28;20551;-61
2021/01/29 04:30:04;;;;;;;4.30;3.33;;;;;;;2.26;58.08;99938.56;6120006;29;20232;-61
2021/01/29 04:33:31;;;;;;;2.63;2.43;;;;;;;2.06;58.69;99952.06;6123055;28;20654;-61
2021/01/29 04:36:55;;;;;;;4.77;4.33;;;;;;;2.29;58.63;99930.91;6120551;28;20259;-60
2021/01/29 04:40:26;;;;;;;7.83;6.17;;;;;;;2.27;58.60;99928.31;6124925;29;20629;-62
2021/01/29 04:44:12;;;;;;;15.70;11.93;;;;;;;2.37;58.14;99944.69;6124664;29;20810;-62
2021/01/29 04:47:41;;;;;;;6.93;3.60;;;;;;;2.24;58.17;99933.41;6119111;29;20228;-61
2021/01/29 04:51:36;;;;;;;4.30;2.40;;;;;;;2.36;58.12;99917.25;6127569;28;20259;-61
2021/01/29 04:55:27;;;;;;;2.67;2.30;;;;;;;1.91;59.17;99897.94;6128449;28;20495;-62
2021/01/29 04:59:18;;;;;;;4.13;3.60;;;;;;;2.26;58.50;99888.03;6136598;28;20256;-61
2021/01/29 05:03:21;;;;;;;7.00;2.70;;;;;;;1.93;59.16;99871.44;6123877;28;20509;-61
2021/01/29 05:07:21;;;;;;;5.93;2.60;;;;;;;2.05;58.60;99864.72;6127065;29;20936;-61
2021/01/29 05:11:26;;;;;;;1.90;1.77;;;;;;;2.23;58.20;99852.06;6112039;29;20243;-61
2021/01/29 05:14:57;;;;;;;12.13;4.83;;;;;;;2.09;58.13;99849.34;6122496;28;20239;-62
2021/01/29 05:19:08;;;;;;;3.10;2.43;;;;;;;2.19;57.74;99846.84;6124793;28;20244;-62
2021/01/29 05:22:50;;;;;;;4.30;2.87;;;;;;;2.20;57.62;99831.47;6131943;28;20495;-60
2021/01/29 05:26:46;;;;;;;7.20;5.70;;;;;;;2.13;57.89;99837.38;6121557;29;20236;-61
2021/01/29 05:30:25;;;;;;;6.00;4.30;;;;;;;2.08;58.15;99827.09;6122863;28;20543;-62
2021/01/29 05:34:00;;;;;;;4.93;2.37;;;;;;;1.73;58.72;99824.16;6120607;28;20254;-60
2021/01/29 05:37:58;;;;;;;3.40;2.47;;;;;;;1.90;58.74;99814.03;6119969;28;20228;-61
2021/01/29 05:41:35;;;;;;;5.23;2.00;;;;;;;1.95;58.36;99817.53;6124376;28;20224;-61
2021/01/29 05:45:23;;;;;;;3.67;2.87;;;;;;;2.05;57.76;99826.19;6124677;28;20235;-62
2021/01/29 05:48:58;;;;;;;3.17;2.23;;;;;;;2.03;57.82;99821.03;6115745;28;20504;-61
2021/01/29 05:52:44;;;;;;;8.17;2.67;;;;;;;1.95;57.48;99814.97;6112612;29;20228;-61
2021/01/29 05:56:13;;;;;;;4.13;2.83;;;;;;;2.05;57.46;99806.50;6134709;28;20228;-61
2021/01/29 05:59:54;;;;;;;3.87;2.73;;;;;;;2.23;56.71;99802.38;6114771;28;20227;-61
2021/01/29 06:03:48;;;;;;;6.03;2.33;;;;;;;2.11;57.27;99788.59;6121483;28;20705;-60
2021/01/29 06:07:33;;;;;;;18.63;11.33;;;;;;;2.15;57.22;99779.19;6111423;28;20236;-61
2021/01/29 06:11:28;;;;;;;10.70;8.23;;;;;;;2.12;57.17;99764.63;6131272;28;20233;-60
2021/01/29 06:15:29;;;;;;;6.93;4.87;;;;;;;2.15;56.59;99762.09;6127174;28;20613;-61
2021/01/29 06:19:16;;;;;;;12.77;6.53;;;;;;;1.91;57.02;99759.28;6122582;28;20232;-61
2021/01/29 06:23:08;;;;;;;7.87;5.23;;;;;;;2.06;57.08;99768.84;6122440;28;20235;-61
2021/01/29 06:26:57;;;;;;;9.63;6.77;;;;;;;2.25;56.71;99767.28;6108895;28;20243;-61
2021/01/29 06:30:33;;;;;;;6.13;3.40;;;;;;;2.32;56.02;99762.19;6121443;28;20235;-61
2021/01/29 06:34:16;;;;;;;4.43;2.40;;;;;;;2.10;56.36;99745.75;6119679;28;20232;-61
2021/01/29 06:37:50;;;;;;;4.13;2.17;;;;;;;2.09;55.60;99738.88;6123795;28;20235;-61
2021/01/29 06:41:58;;;;;;;5.07;2.80;;;;;;;2.06;56.60;99728.59;6119281;28;20231;-61
2021/01/29 06:45:29;;;;;;;3.23;2.53;;;;;;;2.27;55.57;99727.03;6102273;28;20247;-62
2021/01/29 06:49:04;;;;;;;6.33;2.63;;;;;;;2.16;55.47;99720.13;6113324;28;20634;-61
2021/01/29 06:53:01;;;;;;;4.73;2.67;;;;;;;2.06;56.27;99714.91;6111999;29;20233;-63
2021/01/29 06:56:50;;;;;;;4.33;2.60;;;;;;;1.79;56.88;99697.56;6110304;28;20312;-60
2021/01/29 07:00:34;;;;;;;3.93;2.67;;;;;;;2.00;55.96;99692.63;6120233;28;20235;-63
2021/01/29 07:04:33;;;;;;;4.63;2.60;;;;;;;1.72;56.56;99684.66;6118271;28;20259;-62
2021/01/29 07:08:11;;;;;;;3.97;2.00;;;;;;;1.97;55.81;99677.16;6105538;28;20234;-62
2021/01/29 07:11:48;;;;;;;2.57;2.23;;;;;;;1.55;56.88;99683.66;6121104;28;20235;-62
2021/01/29 07:15:31;;;;;;;3.67;2.00;;;;;;;1.93;55.66;99675.44;6112836;28;20231;-61
2021/01/29 07:19:08;;;;;;;4.43;2.17;;;;;;;1.90;55.75;99677.97;6119531;28;20244;-61
2021/01/29 07:23:02;;;;;;;3.93;2.30;;;;;;;2.20;54.48;99666.22;6117838;28;20252;-60
2021/01/29 07:26:45;;;;;;;3.27;1.97;;;;;;;2.04;54.25;99663.53;6117327;28;20524;-62
2021/01/29 07:30:21;;;;;;;5.13;2.47;;;;;;;2.23;54.07;99654.25;6112338;28;20561;-62
2021/01/29 07:33:51;;;;;;;3.57;2.60;;;;;;;2.10;53.75;99643.03;6116393;29;20310;-62
2021/01/29 07:37:33;;;;;;;2.40;1.77;;;;;;;2.20;53.42;99640.53;6116083;28;20235;-62
2021/01/29 07:41:08;;;;;;;6.27;1.63;;;;;;;2.29;52.83;99636.28;6115095;29;20232;-62
2021/01/29 07:44:45;;;;;;;1.87;1.40;;;;;;;2.19;53.15;99642.25;6108204;29;20243;-62
2021/01/29 07:48:47;;;;;;;2.43;1.60;;;;;;;2.38;52.47;99638.03;6094012;28;20224;-62
2021/01/29 07:52:24;;;;;;;5.87;2.47;;;;;;;2.39;54.26;99634.63;6104609;28;20232;-61
2021/01/29 07:56:04;;;;;;;5.50;1.80;;;;;;;2.30;53.18;99630.28;6108983;28;20375;-62
2021/01/29 07:59:35;;;;;;;3.67;1.83;;;;;;;2.17;52.48;99637.09;6116217;29;20423;-62
2021/01/29 08:03:17;;;;;;;3.57;3.20;;;;;;;2.14;52.54;99633.63;6116613;28;20270;-63
2021/01/29 08:06:48;;;;;;;4.43;2.80;;;;;;;2.20;52.73;99625.09;6113763;28;20610;-62
2021/01/29 08:10:25;;;;;;;3.63;1.60;;;;;;;2.19;52.91;99610.53;6108030;28;20227;-62
2021/01/29 08:14:02;;;;;;;3.30;2.40;;;;;;;2.09;52.02;99607.91;6103827;29;20240;-62
2021/01/29 08:17:33;;;;;;;2.50;1.70;;;;;;;2.06;52.57;99604.47;6116433;29;20649;-62
2021/01/29 08:21:23;;;;;;;3.53;1.87;;;;;;;2.29;51.22;99602.03;6113969;29;20243;-61
2021/01/29 08:25:17;;;;;;;5.07;1.53;;;;;;;2.20;51.88;99596.84;6113936;28;20235;-61
2021/01/29 08:29:08;;;;;;;2.43;1.93;;;;;;;2.70;49.95;99594.50;6115243;29;20540;-61
2021/01/29 08:32:59;;;;;;;2.53;1.20;;;;;;;2.75;50.40;99590.25;6108184;29;20248;-61
2021/01/29 08:36:34;;;;;;;2.60;1.50;;;;;;;2.69;50.18;99599.63;6111654;29;20322;-62
2021/01/29 08:40:02;;;;;;;2.53;1.57;;;;;;;2.44;50.63;99596.94;6108623;28;20235;-61
2021/01/29 08:43:40;;;;;;;4.30;1.40;;;;;;;2.53;49.73;99584.16;6108914;29;20228;-61
2021/01/29 08:47:22;;;;;;;3.40;1.53;;;;;;;2.52;49.78;99587.59;6117717;29;20335;-62
2021/01/29 08:50:55;;;;;;;3.57;1.67;;;;;;;2.48;49.30;99583.28;6126304;28;20605;-61
2021/01/29 08:54:34;;;;;;;2.30;1.50;;;;;;;2.70;49.13;99575.66;6108971;29;20239;-63
2021/01/29 08:58:04;;;;;;;2.67;1.67;;;;;;;2.81;48.51;99576.53;6115430;29;20236;-62
2021/01/29 09:01:32;;;;;;;6.27;2.33;;;;;;;2.35;49.20;99578.94;6112762;28;20217;-62
2021/01/29 09:04:59;;;;;;;5.63;1.90;;;;;;;2.01;50.12;99576.19;6118950;29;20652;-61
2021/01/29 09:08:22;;;;;;;4.30;1.30;;;;;;;2.44;48.93;99571.25;6117414;28;20602;-62
2021/01/29 09:11:47;;;;;;;4.07;2.47;;;;;;;2.72;48.54;99574.78;6118302;28;20235;-62
2021/01/29 09:15:17;;;;;;;4.33;1.80;;;;;;;2.71;47.99;99575.63;6118830;29;20228;-62
2021/01/29 09:18:44;;;;;;;4.43;2.93;;;;;;;2.64;48.11;99567.94;6109508;29;20428;-62
2021/01/29 09:22:17;;;;;;;3.33;1.63;;;;;;;2.84;47.97;99561.09;6116781;29;21212;-61
2021/01/29 09:25:50;;;;;;;3.03;1.63;;;;;;;2.77;48.16;99559.38;6119767;28;20227;-61
2021/01/29 09:29:18;;;;;;;6.73;2.03;;;;;;;2.66;47.20;99563.66;6107312;29;20239;-60
2021/01/29 09:32:54;;;;;;;4.97;1.80;;;;;;;2.57;48.23;99556.75;6108356;28;20231;-61
2021/01/29 09:36:18;;;;;;;4.70;1.77;;;;;;;3.13;46.04;99548.28;6112968;28;20348;-60
2021/01/29 09:39:44;;;;;;;1.57;1.47;;;;;;;2.88;46.75;99546.53;6117878;28;20236;-60
2021/01/29 09:43:14;;;;;;;2.30;1.77;;;;;;;2.44;47.75;99549.84;6114318;28;20432;-62
2021/01/29 09:46:40;;;;;;;3.60;2.43;;;;;;;2.60;47.08;99545.59;6106501;29;20224;-62
2021/01/29 09:50:04;;;;;;;4.60;3.03;;;;;;;2.47;46.75;99542.16;6118472;29;20239;-61
2021/01/29 09:53:31;;;;;;;4.87;2.17;;;;;;;3.12;45.29;99546.59;6114660;28;20236;-62
2021/01/29 09:56:56;;;;;;;5.33;1.80;;;;;;;3.33;44.71;99547.44;6107564;28;20229;-63
2021/01/29 10:00:21;;;;;;;2.13;1.73;;;;;;;3.28;44.83;99551.75;6114135;28;20228;-61
2021/01/29 10:03:57;;;;;;;4.27;1.80;;;;;;;3.54;43.59;99555.16;6115952;28;20231;-61
2021/01/29 10:07:24;;;;;;;2.13;1.73;;;;;;;3.13;44.71;99556.00;6112509;29;20223;-62
2021/01/29 10:10:58;;;;;;;1.77;1.50;;;;;;;3.50;44.61;99548.28;6107612;28;20319;-62
2021/01/29 10:14:23;;;;;;;4.00;1.77;;;;;;;3.79;44.42;99549.13;6118572;29;20250;-63
2021/01/29 10:17:55;;;;;;;3.00;1.87;;;;;;;3.97;43.11;99543.94;6110384;28;20769;-63
2021/01/29 10:21:20;;;;;;;4.07;1.93;;;;;;;3.46;44.47;99541.44;6128347;28;20235;-62
2021/01/29 10:24:49;;;;;;;3.60;1.87;;;;;;;3.70;43.76;99535.41;6111590;29;20232;-63
2021/01/29 10:28:18;;;;;;;2.93;1.80;;;;;;;3.77;43.81;99530.25;6111915;28;20549;-62
2021/01/29 10:31:45;;;;;;;2.80;1.73;;;;;;;3.46;43.46;99538.00;6114069;29;20243;-62
2021/01/29 10:35:15;;;;;;;3.53;1.77;;;;;;;3.72;43.77;99523.41;6100089;28;20235;-61
2021/01/29 10:38:43;;;;;;;5.57;2.93;;;;;;;4.13;42.85;99519.00;6116105;29;20227;-61
2021/01/29 10:42:12;;;;;;;5.10;3.07;;;;;;;4.14;43.18;99513.81;6110200;29;20228;-62
2021/01/29 10:45:45;;;;;;;4.20;1.93;;;;;;;3.61;43.69;99517.41;6105262;29;20259;-61
2021/01/29 10:49:13;;;;;;;1.83;1.73;;;;;;;3.72;44.29;99504.50;6105004;29;20235;-62
2021/01/29 10:52:39;;;;;;;3.57;1.30;;;;;;;3.62;44.29;99506.22;6107228;29;20235;-61
2021/01/29 10:56:02;;;;;;;9.90;5.57;;;;;;;3.75;43.79;99513.06;6102977;29;21713;-62
2021/01/29 10:59:27;;;;;;;3.00;2.23;;;;;;;3.71;42.33;99513.94;6104089;29;20243;-62
2021/01/29 11:02:53;;;;;;;3.50;1.57;;;;;;;4.00;42.07;99510.44;6108649;29;20327;-63
2021/01/29 11:06:16;;;;;;;3.57;1.70;;;;;;;3.64;42.88;99512.22;6103699;29;20618;-62
2021/01/29 11:09:40;;;;;;;1.87;1.30;;;;;;;3.59;43.46;99505.38;6104276;29;20228;-63
2021/01/29 11:13:06;;;;;;;1.90;1.80;;;;;;;3.54;42.78;99513.97;6104091;29;20239;-62
2021/01/29 11:16:38;;;;;;;2.83;2.00;;;;;;;3.53;42.36;99516.56;6105951;28;20515;-61
2021/01/29 11:20:09;;;;;;;6.20;4.77;;;;;;;3.53;42.80;99508.84;6096533;28;20654;-61
2021/01/29 11:23:38;;;;;;;3.43;2.23;;;;;;;3.41;43.07;99522.56;6103123;28;20231;-62
2021/01/29 11:27:06;;;;;;;2.63;1.90;;;;;;;3.34;43.02;99521.72;6103563;28;20495;-61
2021/01/29 11:30:30;;;;;;;2.17;1.67;;;;;;;3.68;41.29;99511.38;6106305;29;20240;-63
2021/01/29 11:33:57;;;;;;;2.90;2.03;;;;;;;4.18;49.40;99517.25;6111702;29;20505;-60
2021/01/29 11:37:29;;;;;;;3.23;1.70;;;;;;;4.05;46.64;99519.03;6129835;28;20259;-60
2021/01/29 11:41:01;;;;;;;2.40;1.60;;;;;;;4.08;41.72;99510.41;6099142;29;20518;-61
2021/01/29 11:44:39;;;;;;;2.27;1.40;;;;;;;3.59;41.99;99518.25;6129731;28;20240;-61
2021/01/29 11:48:07;;;;;;;2.37;1.60;;;;;;;3.94;40.77;99515.63;6121462;28;20331;-62
2021/01/29 11:51:34;;;;;;;3.70;2.20;;;;;;;3.66;40.75;99512.22;6110666;28;20543;-62
2021/01/29 11:55:05;;;;;;;3.30;2.33;;;;;;;3.31;41.93;99513.97;6122063;28;20240;-62
2021/01/29 11:58:35;;;;;;;4.60;2.00;;;;;;;3.53;42.00;99507.13;6111546;28;20227;-62
2021/01/29 12:02:05;;;;;;;1.87;1.70;;;;;;;3.48;40.96;99502.81;6115002;29;20231;-61
2021/01/29 12:05:32;;;;;;;1.50;1.40;;;;;;;3.57;40.75;99513.13;6111950;29;20509;-61
2021/01/29 12:09:03;;;;;;;2.87;1.40;;;;;;;3.49;42.39;99513.13;6112051;29;20342;-63
2021/01/29 12:12:28;;;;;;;5.93;2.13;;;;;;;3.42;43.93;99513.13;6117661;28;20227;-62
2021/01/29 12:15:55;;;;;;;3.47;1.83;;;;;;;3.50;43.29;99509.69;6116619;29;20224;-61
2021/01/29 12:19:26;;;;;;;4.70;1.40;;;;;;;3.11;44.91;99513.13;6117097;28;20334;-62
2021/01/29 12:22:53;;;;;;;3.23;2.03;;;;;;;2.97;46.59;99515.72;6121677;29;22349;-61
2021/01/29 12:26:22;;;;;;;1.50;1.40;;;;;;;2.78;49.09;99519.09;6121024;29;20236;-62
2021/01/29 12:29:49;;;;;;;4.13;1.53;;;;;;;2.39;51.54;99519.00;6123878;28;20236;-63
2021/01/29 12:33:14;;;;;;;2.80;1.30;;;;;;;2.32;52.97;99509.53;6124480;29;20244;-61
2021/01/29 12:36:37;;;;;;;1.80;1.70;;;;;;;1.95;53.74;99507.69;6117657;28;20606;-62
2021/01/29 12:40:06;;;;;;;3.20;2.20;;;;;;;2.14;54.43;99511.19;6111973;28;20228;-62
2021/01/29 12:43:37;;;;;;;2.03;1.70;;;;;;;2.26;54.84;99504.41;6110714;29;20243;-63
2021/01/29 12:47:07;;;;;;;5.30;1.70;;;;;;;2.34;54.75;99505.28;6108971;29;20649;-62
2021/01/29 12:50:46;;;;;;;2.80;1.70;;;;;;;2.39;55.52;99506.16;6104545;29;20232;-62
2021/01/29 12:54:18;;;;;;;3.50;2.23;;;;;;;2.20;56.19;99496.66;6101937;29;20231;-61
2021/01/29 12:57:38;;;;;;;4.17;1.70;;;;;;;2.17;57.04;99493.25;6106910;29;20243;-62
2021/01/29 13:01:01;;;;;;;3.80;2.03;;;;;;;2.39;57.48;99495.03;6110819;29;22116;-61
2021/01/29 13:04:34;;;;;;;4.50;2.20;;;;;;;2.23;58.49;99497.53;6104578;28;20260;-62
2021/01/29 13:08:08;;;;;;;3.63;1.80;;;;;;;2.53;57.74;99501.91;6106251;29;20319;-63
2021/01/29 13:11:39;;;;;;;4.50;2.87;;;;;;;2.42;58.61;99495.88;6106249;28;20577;-62
2021/01/29 13:15:17;;;;;;;7.67;2.13;;;;;;;2.34;59.22;99495.00;6106113;29;20368;-61
2021/01/29 13:18:44;;;;;;;2.27;2.07;;;;;;;2.21;60.60;99500.94;6105248;29;20239;-62
2021/01/29 13:22:33;;;;;;;2.70;2.03;;;;;;;2.18;60.88;99496.66;6107152;28;20244;-61
2021/01/29 13:25:59;;;;;;;4.57;2.67;;;;;;;2.21;60.82;99490.66;6107219;29;20331;-62
2021/01/29 13:29:22;;;;;;;3.23;2.20;;;;;;;2.21;61.91;99495.81;6106182;29;20492;-62
2021/01/29 13:32:43;;;;;;;2.60;2.40;;;;;;;2.13;62.01;99496.66;6108647;29;20239;-62
2021/01/29 13:36:08;;;;;;;4.57;2.30;;;;;;;2.09;62.01;99494.91;6108445;28;20505;-62
2021/01/29 13:39:31;;;;;;;2.17;1.97;;;;;;;1.77;63.20;99493.03;6107378;28;20273;-61
2021/01/29 13:42:54;;;;;;;4.57;2.33;;;;;;;2.05;62.11;99493.16;6111025;29;20236;-62
2021/01/29 13:46:25;;;;;;;4.20;2.70;;;;;;;2.15;61.54;99494.06;6110667;29;20240;-63
2021/01/29 13:49:45;;;;;;;3.47;2.33;;;;;;;1.88;62.69;99487.09;6108194;29;20532;-62
2021/01/29 13:53:08;;;;;;;2.40;1.73;;;;;;;1.93;62.49;99490.56;6113835;29;20232;-62
2021/01/29 13:56:40;;;;;;;3.63;2.33;;;;;;;1.80;62.27;99499.03;6118356;29;20326;-62
2021/01/29 14:00:09;;;;;;;3.23;2.10;;;;;;;1.84;62.68;99485.38;6108260;29;20240;-62
2021/01/29 14:03:35;;;;;;;2.50;2.13;;;;;;;1.92;62.28;99486.25;6102673;28;20544;-62
2021/01/29 14:06:56;;;;;;;3.30;2.70;;;;;;;1.97;62.48;99479.44;6111100;29;20240;-63
2021/01/29 14:10:20;;;;;;;3.07;2.77;;;;;;;2.26;62.20;99494.97;6122178;29;20306;-62
2021/01/29 14:13:55;;;;;;;3.57;2.20;;;;;;;2.16;62.74;99491.50;6116013;28;20434;-61
2021/01/29 14:17:24;;;;;;;6.63;3.40;;;;;;;1.79;63.53;99481.94;6117566;29;20228;-62
2021/01/29 14:20:49;;;;;;;4.57;3.40;;;;;;;1.96;64.28;99493.16;6117011;29;20591;-62
2021/01/29 14:24:23;;;;;;;3.37;2.27;;;;;;;2.14;63.31;99500.91;6117427;29;20235;-63
2021/01/29 14:27:56;;;;;;;5.83;2.33;;;;;;;1.98;63.92;99494.00;6120885;29;20270;-62
2021/01/29 14:31:24;;;;;;;3.60;2.77;;;;;;;1.84;64.25;99501.66;6120168;29;20338;-63
2021/01/29 14:34:54;;;;;;;5.37;2.80;;;;;;;2.06;63.86;99502.59;6120881;28;20231;-62
2021/01/29 14:38:33;;;;;;;3.97;2.90;;;;;;;1.51;66.05;99492.91;6098929;29;20544;-63
2021/01/29 14:42:04;;;;;;;5.67;3.53;;;;;;;1.50;66.46;99490.31;6121313;28;20232;-62
2021/01/29 14:45:38;;;;;;;4.30;2.73;;;;;;;1.44;65.68;99485.16;6119602;29;20227;-63
2021/01/29 14:49:47;;;;;;;4.47;2.60;;;;;;;1.35;66.31;99502.19;6100018;28;20240;-61
2021/01/29 14:53:26;;;;;;;4.10;2.33;;;;;;;1.32;66.68;99506.47;6061524;29;20322;-62
2021/01/29 14:56:54;;;;;;;2.43;2.23;;;;;;;1.49;66.25;99499.75;6107769;29;20232;-62
2021/01/29 15:00:18;;;;;;;2.53;2.23;;;;;;;1.73;65.64;99509.28;6109786;29;20715;-63
2021/01/29 15:03:44;;;;;;;5.20;3.97;;;;;;;1.65;65.49;99513.53;6107835;29;20227;-62
2021/01/29 15:07:10;;;;;;;5.87;4.27;;;;;;;1.72;64.76;99510.13;6102867;28;20331;-63
2021/01/29 15:10:33;;;;;;;9.80;6.33;;;;;;;1.46;66.21;99514.25;6104305;29;20235;-60
2021/01/29 15:13:57;;;;;;;5.67;4.37;;;;;;;1.69;66.14;99506.69;6109279;29;20346;-62
2021/01/29 15:17:29;;;;;;;8.83;6.63;;;;;;;1.95;65.18;99515.38;6108197;29;20326;-61
2021/01/29 15:20:51;;;;;;;16.23;11.80;;;;;;;2.13;65.25;99521.44;6103659;29;20243;-63
2021/01/29 15:24:16;;;;;;;16.97;11.60;;;;;;;2.19;64.52;99524.06;6111578;29;20236;-62
2021/01/29 15:27:36;;;;;;;10.97;8.23;;;;;;;2.29;64.06;99514.69;6105838;29;20232;-62
2021/01/29 15:30:59;;;;;;;25.93;18.53;;;;;;;2.00;65.30;99519.69;6107578;29;20235;-61
2021/01/29 15:34:58;;;;;;;13.87;9.43;;;;;;;1.88;65.64;99512.78;6113248;29;20236;-62
2021/01/29 15:38:40;;;;;;;24.70;16.87;;;;;;;2.19;64.64;99520.63;6115863;29;20224;-61
2021/01/29 15:42:08;;;;;;;10.23;7.87;;;;;;;2.01;65.20;99514.56;6101807;29;20235;-62
2021/01/29 15:45:50;;;;;;;10.53;7.43;;;;;;;1.87;64.89;99519.63;6107109;29;21172;-62
2021/01/29 15:49:31;;;;;;;9.93;6.67;;;;;;;2.22;64.09;99516.38;6107792;28;20311;-62
2021/01/29 15:52:51;;;;;;;3.97;3.07;;;;;;;1.77;65.81;99513.56;6106990;29;20566;-62
2021/01/29 15:56:27;;;;;;;2.83;2.17;;;;;;;1.79;65.77;99523.00;6108663;29;20770;-63
2021/01/29 15:59:51;;;;;;;6.70;5.30;;;;;;;2.09;65.38;99515.44;6110248;29;20235;-62
2021/01/29 16:03:13;;;;;;;5.40;4.27;;;;;;;2.09;64.65;99512.88;6115007;29;20244;-62
2021/01/29 16:06:40;;;;;;;5.17;2.97;;;;;;;2.11;65.11;99516.34;6109036;28;20613;-62
2021/01/29 16:10:13;;;;;;;3.13;2.67;;;;;;;2.29;64.64;99519.84;6109960;29;20778;-62
2021/01/29 16:13:36;;;;;;;4.63;4.10;;;;;;;2.18;64.37;99509.50;6106420;29;20236;-61
2021/01/29 16:17:08;;;;;;;8.90;5.67;;;;;;;2.37;64.60;99513.00;6109709;29;20228;-62
2021/01/29 16:20:31;;;;;;;17.03;10.13;;;;;;;2.12;64.67;99512.06;6111924;29;20239;-63
2021/01/29 16:23:54;;;;;;;10.57;7.83;;;;;;;2.05;64.81;99508.56;6108666;29;20619;-61
2021/01/29 16:27:17;;;;;;;7.57;6.13;;;;;;;1.85;65.52;99512.78;6108852;29;20227;-62
2021/01/29 16:30:39;;;;;;;6.87;4.33;;;;;;;1.88;65.60;99513.66;6114349;28;20236;-62
2021/01/29 16:34:02;;;;;;;18.93;14.10;;;;;;;1.94;65.03;99528.25;6109171;29;20232;-62
2021/01/29 16:37:23;;;;;;;26.40;20.90;;;;;;;2.25;64.31;99538.63;6107745;29;20267;-62
2021/01/29 16:40:44;;;;;;;6.33;5.50;;;;;;;1.87;65.21;99540.16;6112219;29;20828;-62
2021/01/29 16:44:35;;;;;;;18.20;13.90;;;;;;;2.20;64.41;99546.31;6110148;29;20236;-62
2021/01/29 16:47:57;;;;;;;4.50;4.07;;;;;;;2.04;64.39;99550.53;6110380;29;20267;-62
2021/01/29 16:51:21;;;;;;;3.03;2.50;;;;;;;1.71;65.59;99557.19;6120307;29;20228;-62
2021/01/29 16:54:44;;;;;;;26.60;15.90;;;;;;;1.76;65.17;99554.63;6121689;28;21059;-61
2021/01/29 16:58:07;;;;;;;12.30;9.17;;;;;;;1.96;64.52;99557.34;6117064;28;20342;-62